createdAt,value
2024-04-10T00:01:47.954Z,0.50
2024-04-10T00:04:15.819Z,0.17
2024-04-10T00:06:43.357Z,0.70
2024-04-10T00:09:10.777Z,0.45
2024-04-10T00:11:38.200Z,0.70
2024-04-10T00:14:05.645Z,0.60
2024-04-10T00:16:33.027Z,0.32
2024-04-10T00:19:00.575Z,0.60
2024-04-10T00:21:33.579Z,0.60
2024-04-10T00:24:01.017Z,0.60
2024-04-10T00:26:28.634Z,0.60
2024-04-10T00:28:56.198Z,0.50
2024-04-10T00:31:23.635Z,0.47
2024-04-10T00:33:51.120Z,0.50
2024-04-10T00:36:18.608Z,0.43
2024-04-10T00:38:45.974Z,0.50
2024-04-10T00:41:13.989Z,0.40
2024-04-10T00:43:41.363Z,0.50
2024-04-10T00:46:11.751Z,0.60
2024-04-10T00:48:40.202Z,0.63
2024-04-10T00:51:15.008Z,0.50
2024-04-10T00:53:42.494Z,0.50
2024-04-10T00:56:10.243Z,0.55
2024-04-10T00:58:37.638Z,0.70
2024-04-10T01:01:05.721Z,0.73
2024-04-10T01:03:33.630Z,0.60
2024-04-10T01:06:04.515Z,0.60
2024-04-10T01:08:32.336Z,0.63
2024-04-10T01:11:00.819Z,0.63
2024-04-10T01:13:28.674Z,0.77
2024-04-10T01:15:56.468Z,0.52
2024-04-10T01:18:24.303Z,0.60
2024-04-10T01:20:52.034Z,0.60
2024-04-10T01:23:19.876Z,0.70
2024-04-10T01:25:47.439Z,0.80
2024-04-10T01:28:14.827Z,0.60
2024-04-10T01:30:42.264Z,0.50
2024-04-10T01:33:09.675Z,0.40
2024-04-10T01:35:37.347Z,0.75
2024-04-10T01:38:04.868Z,0.70
2024-04-10T01:40:33.156Z,0.50
2024-04-10T01:43:00.543Z,0.80
2024-04-10T01:45:27.914Z,0.77
2024-04-10T01:47:55.467Z,1.10
2024-04-10T01:50:22.907Z,0.68
2024-04-10T01:52:50.719Z,0.45
2024-04-10T01:55:18.701Z,0.75
2024-04-10T01:57:46.122Z,0.68
2024-04-10T02:00:13.833Z,0.80
2024-04-10T02:02:41.310Z,0.70
2024-04-10T02:05:08.862Z,0.80
2024-04-10T02:07:36.349Z,0.63
2024-04-10T02:10:03.762Z,0.73
2024-04-10T02:12:31.144Z,0.82
2024-04-10T02:14:58.757Z,0.70
2024-04-10T02:17:26.255Z,0.70
2024-04-10T02:19:53.867Z,0.60
2024-04-10T02:22:21.331Z,0.60
2024-04-10T02:24:48.678Z,0.45
2024-04-10T02:27:16.031Z,0.52
2024-04-10T02:29:43.377Z,0.45
2024-04-10T02:32:11.047Z,1.02
2024-04-10T02:34:38.499Z,0.47
2024-04-10T02:37:05.874Z,0.47
2024-04-10T02:39:33.233Z,0.68
2024-04-10T02:42:00.771Z,0.80
2024-04-10T02:44:28.543Z,0.60
2024-04-10T02:46:56.835Z,0.40
2024-04-10T02:49:24.299Z,0.40
2024-04-10T02:51:51.641Z,0.70
2024-04-10T02:54:19.065Z,0.60
2024-04-10T02:56:46.444Z,0.63
2024-04-10T02:59:13.902Z,0.60
2024-04-10T03:01:41.342Z,0.80
2024-04-10T03:04:08.959Z,0.47
2024-04-10T03:06:36.386Z,0.40
2024-04-10T03:09:03.901Z,0.60
2024-04-10T03:11:31.429Z,0.50
2024-04-10T03:13:59.018Z,0.65
2024-04-10T03:16:26.417Z,0.60
2024-04-10T03:18:53.906Z,0.40
2024-04-10T03:21:21.327Z,0.40
2024-04-10T03:23:48.847Z,0.55
2024-04-10T03:26:16.457Z,0.60
2024-04-10T03:28:43.933Z,0.65
2024-04-10T03:31:11.299Z,0.60
2024-04-10T03:33:39.000Z,0.50
2024-04-10T03:36:06.519Z,0.70
2024-04-10T03:38:34.118Z,0.60
2024-04-10T03:41:01.944Z,0.73
2024-04-10T03:43:29.373Z,0.50
2024-04-10T03:45:57.405Z,0.30
2024-04-10T03:48:25.045Z,0.75
2024-04-10T03:50:59.271Z,0.60
2024-04-10T03:53:26.747Z,0.57
2024-04-10T03:55:54.803Z,0.82
2024-04-10T03:58:22.427Z,0.60
2024-04-10T04:00:49.823Z,0.98
2024-04-10T04:03:17.500Z,1.00
2024-04-10T04:05:45.386Z,0.93
2024-04-10T04:08:13.572Z,0.98
2024-04-10T04:10:44.570Z,0.60
2024-04-10T04:13:12.050Z,0.50
2024-04-10T04:15:42.032Z,0.93
2024-04-10T04:18:10.770Z,0.80
2024-04-10T04:20:38.651Z,0.50
2024-04-10T04:23:06.661Z,0.60
2024-04-10T04:25:38.799Z,0.47
2024-04-10T04:28:06.911Z,0.77
2024-04-10T04:30:35.955Z,0.60
2024-04-10T04:33:06.756Z,1.10
2024-04-10T04:35:34.354Z,1.08
2024-04-10T04:38:01.838Z,0.60
2024-04-10T04:40:32.186Z,0.60
2024-04-10T04:43:00.052Z,0.50
2024-04-10T04:45:27.908Z,0.45
2024-04-10T04:47:55.482Z,0.57
2024-04-10T04:50:23.080Z,0.60
2024-04-10T04:52:50.872Z,0.70
2024-04-10T04:55:18.496Z,0.70
2024-04-10T04:57:45.857Z,0.80
2024-04-10T05:00:15.479Z,0.70
2024-04-10T05:02:43.384Z,0.70
2024-04-10T05:05:28.780Z,0.50
2024-04-10T05:10:23.487Z,0.60
2024-04-10T05:12:51.958Z,0.80
2024-04-10T05:15:20.220Z,0.55
2024-04-10T05:17:50.382Z,0.60
2024-04-10T05:20:19.248Z,0.60
2024-04-10T05:22:46.717Z,0.80
2024-04-10T05:25:15.306Z,0.70
2024-04-10T05:27:45.581Z,0.73
2024-04-10T05:30:14.172Z,0.68
2024-04-10T05:32:42.850Z,0.75
2024-04-10T05:35:12.784Z,0.60
2024-04-10T05:37:41.242Z,0.43
2024-04-10T05:40:12.584Z,0.98
2024-04-10T05:42:40.291Z,0.60
2024-04-10T05:45:12.651Z,0.63
2024-04-10T05:47:44.201Z,0.65
2024-04-10T05:50:13.332Z,0.80
2024-04-10T05:52:42.340Z,0.70
2024-04-10T05:55:10.497Z,0.80
2024-04-10T05:57:37.915Z,0.60
2024-04-10T06:00:05.871Z,0.70
2024-04-10T06:02:40.326Z,1.60
2024-04-10T06:05:09.093Z,1.02
2024-04-10T06:07:43.583Z,0.77
2024-04-10T06:10:13.737Z,0.77
2024-04-10T06:12:41.444Z,0.55
2024-04-10T06:15:09.049Z,0.88
2024-04-10T06:17:38.284Z,0.70
2024-04-10T06:20:07.870Z,0.77
2024-04-10T06:22:35.334Z,0.82
2024-04-10T06:25:02.780Z,0.80
2024-04-10T06:27:32.621Z,0.70
2024-04-10T06:30:01.452Z,1.38
2024-04-10T06:32:28.984Z,0.80
2024-04-10T06:34:56.533Z,1.10
2024-04-10T06:37:23.920Z,1.08
2024-04-10T06:39:54.277Z,1.00
2024-04-10T06:42:21.625Z,0.90
2024-04-10T06:44:52.879Z,1.20
2024-04-10T06:47:20.538Z,1.10
2024-04-10T06:49:48.091Z,0.77
2024-04-10T06:52:15.582Z,0.98
2024-04-10T06:54:42.937Z,0.93
2024-04-10T06:57:10.259Z,0.82
2024-04-10T06:59:38.196Z,0.90
2024-04-10T07:02:05.821Z,1.10
2024-04-10T07:04:33.287Z,1.45
2024-04-10T07:07:04.918Z,1.23
2024-04-10T07:09:33.653Z,0.90
2024-04-10T07:12:01.252Z,1.15
2024-04-10T07:14:29.999Z,1.05
2024-04-10T07:16:57.491Z,1.10
2024-04-10T07:19:25.684Z,1.15
2024-04-10T07:21:53.352Z,0.98
2024-04-10T07:24:22.437Z,1.00
2024-04-10T07:26:49.834Z,1.10
2024-04-10T07:29:17.348Z,1.02
2024-04-10T07:31:44.734Z,1.00
2024-04-10T07:34:15.829Z,1.25
2024-04-10T07:36:44.848Z,1.20
2024-04-10T07:39:12.912Z,1.08
2024-04-10T07:41:40.570Z,1.35
2024-04-10T07:44:08.548Z,0.93
2024-04-10T07:46:36.195Z,1.17
2024-04-10T07:49:03.976Z,5.35
2024-04-10T07:51:31.697Z,1.10
2024-04-10T07:53:59.060Z,1.20
2024-04-10T07:56:29.296Z,1.20
2024-04-10T07:58:56.850Z,1.10
2024-04-10T08:01:24.813Z,1.45
2024-04-10T08:03:53.148Z,1.35
2024-04-10T08:06:20.750Z,1.30
2024-04-10T08:08:48.126Z,1.52
2024-04-10T08:11:20.584Z,1.20
2024-04-10T08:13:48.182Z,1.48
2024-04-10T08:16:17.302Z,1.45
2024-04-10T08:18:46.693Z,1.35
2024-04-10T08:21:15.585Z,1.50
2024-04-10T08:23:44.079Z,1.60
2024-04-10T08:26:12.067Z,1.42
2024-04-10T08:28:47.438Z,1.38
2024-04-10T08:31:18.366Z,1.45
2024-04-10T08:33:47.198Z,1.40
2024-04-10T08:36:15.306Z,1.40
2024-04-10T08:38:43.026Z,1.60
2024-04-10T08:41:17.429Z,1.50
2024-04-10T08:43:48.544Z,1.38
2024-04-10T08:46:29.656Z,1.40
2024-04-10T08:48:57.990Z,1.45
2024-04-10T08:51:26.509Z,1.67
2024-04-10T08:53:54.848Z,1.88
2024-04-10T08:56:22.364Z,1.50
2024-04-10T08:58:49.697Z,1.45
2024-04-10T09:01:27.905Z,1.35
2024-04-10T09:03:55.730Z,1.30
2024-04-10T09:06:24.375Z,1.65
2024-04-10T09:09:01.845Z,1.60
2024-04-10T09:11:29.645Z,1.60
2024-04-10T09:14:07.393Z,1.65
2024-04-10T09:16:35.275Z,1.73
2024-04-10T09:19:12.642Z,1.38
2024-04-10T09:21:42.707Z,2.00
2024-04-10T09:24:10.946Z,1.52
2024-04-10T09:26:40.115Z,1.20
2024-04-10T09:29:09.271Z,1.90
2024-04-10T09:31:38.652Z,1.52
2024-04-10T09:34:06.906Z,1.73
2024-04-10T09:36:34.682Z,1.42
2024-04-10T09:39:02.600Z,1.40
2024-04-10T09:41:32.499Z,1.60
2024-04-10T09:44:00.705Z,1.88
2024-04-10T09:46:35.964Z,1.58
2024-04-10T09:49:14.001Z,1.30
2024-04-10T09:51:42.226Z,1.50
2024-04-10T09:54:10.059Z,1.17
2024-04-10T09:56:38.188Z,1.00
2024-04-10T09:59:06.520Z,1.20
2024-04-10T10:01:33.930Z,2.03
2024-04-10T10:04:01.650Z,2.03
2024-04-10T10:06:32.544Z,1.10
2024-04-10T10:09:00.530Z,1.15
2024-04-10T10:11:29.407Z,1.40
2024-04-10T10:14:00.595Z,1.42
2024-04-10T10:16:32.278Z,1.35
2024-04-10T10:19:01.407Z,1.02
2024-04-10T10:21:30.093Z,1.30
2024-04-10T10:24:02.943Z,1.63
2024-04-10T10:26:30.512Z,1.30
2024-04-10T10:29:10.352Z,1.23
2024-04-10T10:31:39.238Z,1.40
2024-04-10T10:34:15.830Z,1.50
2024-04-10T10:36:46.827Z,1.27
2024-04-10T10:39:17.856Z,1.52
2024-04-10T10:41:45.350Z,1.42
2024-04-10T10:44:12.785Z,1.30
2024-04-10T10:46:40.620Z,1.30
2024-04-10T10:49:08.420Z,1.27
2024-04-10T10:51:36.303Z,1.50
2024-04-10T10:54:04.771Z,1.48
2024-04-10T10:56:32.208Z,1.35
2024-04-10T10:59:12.882Z,1.60
2024-04-10T11:01:41.561Z,1.00
2024-04-10T11:04:10.283Z,1.10
2024-04-10T11:06:39.078Z,0.93
2024-04-10T11:09:10.948Z,1.30
2024-04-10T11:11:41.982Z,1.20
2024-04-10T11:14:35.933Z,1.20
2024-04-10T11:17:04.747Z,1.23
2024-04-10T11:19:43.267Z,1.05
2024-04-10T11:22:22.400Z,1.25
2024-04-10T11:24:52.946Z,1.40
2024-04-10T11:27:20.611Z,1.02
2024-04-10T11:29:52.337Z,1.23
2024-04-10T11:32:19.923Z,1.05
2024-04-10T11:34:47.502Z,1.13
2024-04-10T11:37:15.554Z,1.00
2024-04-10T11:39:43.072Z,1.20
2024-04-10T11:42:10.858Z,0.85
2024-04-10T11:44:38.249Z,0.90
2024-04-10T11:47:05.721Z,0.93
2024-04-10T11:49:33.095Z,1.05
2024-04-10T11:52:00.440Z,1.05
2024-04-10T11:54:27.819Z,1.02
2024-04-10T11:56:55.204Z,1.02
2024-04-10T11:59:22.674Z,1.10
2024-04-10T12:01:50.342Z,1.63
2024-04-10T12:04:18.559Z,1.00
2024-04-10T12:06:46.035Z,1.50
2024-04-10T12:09:13.559Z,1.23
2024-04-10T12:11:41.042Z,0.60
2024-04-10T12:14:11.060Z,1.48
2024-04-10T12:16:38.781Z,1.27
2024-04-10T12:19:07.586Z,1.00
2024-04-10T12:21:35.004Z,1.10
2024-04-10T12:24:04.020Z,1.13
2024-04-10T12:26:34.659Z,1.02
2024-04-10T12:29:02.499Z,1.10
2024-04-10T12:31:29.845Z,0.75
2024-04-10T12:33:57.358Z,0.80
2024-04-10T12:36:43.734Z,1.00
2024-04-10T12:39:11.189Z,1.80
2024-04-10T12:41:39.452Z,1.20
2024-04-10T12:44:17.570Z,1.33
2024-04-10T12:46:45.225Z,1.15
2024-04-10T12:49:12.637Z,1.00
2024-04-10T12:51:39.992Z,1.13
2024-04-10T12:54:07.889Z,1.20
2024-04-10T12:56:35.912Z,1.10
2024-04-10T12:59:03.365Z,1.35
2024-04-10T13:01:30.941Z,1.55
2024-04-10T13:03:58.457Z,1.30
2024-04-10T13:06:26.105Z,1.10
2024-04-10T13:08:54.184Z,1.25
2024-04-10T13:11:22.327Z,1.23
2024-04-10T13:13:50.552Z,1.42
2024-04-10T13:16:17.959Z,1.10
2024-04-10T13:18:45.526Z,1.45
2024-04-10T13:21:13.076Z,1.27
2024-04-10T13:23:48.078Z,1.20
2024-04-10T13:26:16.719Z,1.10
2024-04-10T13:28:47.511Z,1.00
2024-04-10T13:31:24.968Z,1.00
2024-04-10T13:33:56.932Z,1.45
2024-04-10T13:36:24.922Z,1.05
2024-04-10T13:38:52.903Z,1.02
2024-04-10T13:41:21.352Z,1.15
2024-04-10T13:43:53.081Z,1.25
2024-04-10T13:46:21.412Z,1.33
2024-04-10T13:48:49.135Z,0.98
2024-04-10T13:51:21.555Z,1.10
2024-04-10T13:53:49.257Z,1.10
2024-04-10T13:56:16.883Z,1.20
2024-04-10T13:58:44.540Z,1.10
2024-04-10T14:01:18.960Z,1.20
2024-04-10T14:03:50.821Z,1.40
2024-04-10T14:06:20.632Z,1.05
2024-04-10T14:08:48.746Z,1.15
2024-04-10T14:11:16.882Z,1.20
2024-04-10T14:13:45.517Z,1.10
2024-04-10T14:16:13.353Z,1.00
2024-04-10T14:18:42.513Z,1.45
2024-04-10T14:21:12.284Z,1.00
2024-04-10T14:23:40.318Z,1.38
2024-04-10T14:26:12.403Z,1.23
2024-04-10T14:28:39.766Z,1.10
2024-04-10T14:31:07.938Z,2.30
2024-04-10T14:33:36.561Z,1.40
2024-04-10T14:36:06.123Z,1.38
2024-04-10T14:38:34.002Z,1.30
2024-04-10T14:41:01.856Z,1.48
2024-04-10T14:43:29.946Z,1.73
2024-04-10T14:45:57.981Z,1.20
2024-04-10T14:48:26.362Z,1.17
2024-04-10T14:50:54.512Z,1.20
2024-04-10T14:53:22.138Z,1.20
2024-04-10T14:55:59.618Z,1.60
2024-04-10T14:58:26.945Z,1.75
2024-04-10T15:00:55.423Z,1.30
2024-04-10T15:03:23.130Z,1.80
2024-04-10T15:05:50.896Z,1.88
2024-04-10T15:09:45.883Z,1.70
2024-04-10T15:12:14.738Z,1.63
2024-04-10T15:14:42.275Z,1.80
2024-04-10T15:17:09.638Z,1.50
2024-04-10T15:19:36.981Z,2.20
2024-04-10T15:22:11.064Z,1.70
2024-04-10T15:24:38.437Z,1.95
2024-04-10T15:27:06.109Z,1.98
2024-04-10T15:29:33.518Z,1.80
2024-04-10T15:32:00.991Z,1.80
2024-04-10T15:34:28.521Z,2.05
2024-04-10T15:36:58.016Z,1.55
2024-04-10T15:39:27.972Z,1.90
2024-04-10T15:41:55.339Z,1.80
2024-04-10T15:44:28.287Z,1.70
2024-04-10T15:46:55.767Z,1.48
2024-04-10T15:49:23.326Z,1.80
2024-04-10T15:51:50.772Z,1.80
2024-04-10T15:54:18.124Z,1.60
2024-04-10T15:56:47.133Z,2.08
2024-04-10T15:59:14.544Z,1.25
2024-04-10T16:01:41.908Z,1.95
2024-04-10T16:04:09.444Z,1.70
2024-04-10T16:06:36.902Z,1.50
2024-04-10T16:09:04.414Z,1.60
2024-04-10T16:11:32.090Z,1.77
2024-04-10T16:13:59.542Z,1.58
2024-04-10T16:16:26.949Z,1.75
2024-04-10T16:18:54.409Z,2.10
2024-04-10T16:21:21.814Z,2.00
2024-04-10T16:23:51.056Z,2.17
2024-04-10T16:26:21.507Z,2.20
2024-04-10T16:28:49.092Z,1.70
2024-04-10T16:31:17.327Z,1.50
2024-04-10T16:33:46.787Z,1.77
2024-04-10T16:36:14.611Z,1.40
2024-04-10T16:38:42.502Z,1.88
2024-04-10T16:41:09.901Z,1.73
2024-04-10T16:43:38.534Z,2.00
2024-04-10T16:46:06.900Z,1.70
2024-04-10T16:48:34.515Z,1.38
2024-04-10T16:51:03.012Z,2.10
2024-04-10T16:53:30.442Z,1.60
2024-04-10T16:55:58.033Z,1.50
2024-04-10T16:58:25.615Z,2.03
2024-04-10T17:01:03.427Z,1.60
2024-04-10T17:03:31.164Z,1.50
2024-04-10T17:05:58.778Z,2.53
2024-04-10T17:08:26.490Z,1.60
2024-04-10T17:10:54.036Z,2.10
2024-04-10T17:13:21.463Z,1.85
2024-04-10T17:15:48.836Z,1.77
2024-04-10T17:18:35.162Z,2.60
2024-04-10T17:21:22.202Z,1.60
2024-04-10T17:23:50.611Z,2.10
2024-04-10T17:26:18.654Z,1.95
2024-04-10T17:28:46.581Z,1.95
2024-04-10T17:31:14.145Z,1.65
2024-04-10T17:33:41.672Z,1.75
2024-04-10T17:36:09.280Z,1.92
2024-04-10T17:38:36.979Z,1.75
2024-04-10T17:41:05.589Z,2.08
2024-04-10T17:43:33.348Z,1.75
2024-04-10T17:46:04.668Z,2.00
2024-04-10T17:48:34.879Z,1.98
2024-04-10T17:51:06.111Z,2.00
2024-04-10T17:53:33.530Z,1.55
2024-04-10T17:56:00.935Z,1.98
2024-04-10T17:58:28.384Z,1.83
2024-04-10T18:01:05.749Z,1.50
2024-04-10T18:03:35.827Z,1.70
2024-04-10T18:06:04.223Z,2.13
2024-04-10T18:08:31.940Z,2.00
2024-04-10T18:10:59.382Z,1.90
2024-04-10T18:13:26.772Z,1.88
2024-04-10T18:15:54.150Z,2.30
2024-04-10T18:18:21.650Z,1.83
2024-04-10T18:20:55.523Z,2.03
2024-04-10T18:23:22.945Z,2.63
2024-04-10T18:25:50.323Z,2.22
2024-04-10T18:28:17.740Z,2.20
2024-04-10T18:30:45.061Z,2.10
2024-04-10T18:33:13.193Z,2.75
2024-04-10T18:35:40.664Z,2.50
2024-04-10T18:38:08.546Z,2.30
2024-04-10T18:40:35.920Z,2.00
2024-04-10T18:43:03.317Z,2.05
2024-04-10T18:45:31.001Z,2.20
2024-04-10T18:47:58.440Z,1.85
2024-04-10T18:50:28.440Z,2.08
2024-04-10T18:52:55.815Z,2.30
2024-04-10T18:55:23.157Z,2.20
2024-04-10T18:57:51.311Z,2.45
2024-04-10T19:00:18.757Z,2.53
2024-04-10T19:02:48.725Z,2.22
2024-04-10T19:05:17.275Z,2.35
2024-04-10T19:07:44.938Z,2.40
2024-04-10T19:10:12.571Z,2.00
2024-04-10T19:12:42.479Z,1.95
2024-04-10T19:15:09.855Z,2.22
2024-04-10T19:17:37.556Z,2.38
2024-04-10T19:20:06.421Z,2.28
2024-04-10T19:22:33.778Z,2.40
2024-04-10T19:25:01.094Z,2.10
2024-04-10T19:27:28.458Z,1.80
2024-04-10T19:29:55.921Z,2.58
2024-04-10T19:32:23.439Z,2.10
2024-04-10T19:34:51.095Z,2.78
2024-04-10T19:37:18.589Z,2.42
2024-04-10T19:39:46.106Z,2.15
2024-04-10T19:42:13.519Z,2.42
2024-04-10T19:44:43.092Z,2.05
2024-04-10T19:47:10.547Z,2.17
2024-04-10T19:49:38.000Z,2.58
2024-04-10T19:52:05.508Z,2.58
2024-04-10T19:54:32.866Z,2.58
2024-04-10T19:57:00.314Z,2.97
2024-04-10T19:59:27.790Z,2.80
2024-04-10T20:01:55.178Z,3.20
2024-04-10T20:04:22.572Z,2.50
2024-04-10T20:06:49.924Z,2.80
2024-04-10T20:09:18.072Z,3.60
2024-04-10T20:11:45.541Z,3.40
2024-04-10T20:14:13.008Z,3.13
2024-04-10T20:16:40.350Z,3.75
2024-04-10T20:19:07.981Z,3.13
2024-04-10T20:21:37.901Z,3.42
2024-04-10T20:24:06.856Z,3.15
2024-04-10T20:26:34.327Z,3.03
2024-04-10T20:29:01.699Z,3.35
2024-04-10T20:31:29.086Z,3.33
2024-04-10T20:33:57.445Z,3.50
2024-04-10T20:36:25.835Z,2.97
2024-04-10T20:38:53.195Z,2.97
2024-04-10T20:41:20.587Z,3.45
2024-04-10T20:43:48.234Z,3.42
2024-04-10T20:46:15.615Z,3.17
2024-04-10T20:48:49.528Z,3.88
2024-04-10T20:51:18.154Z,3.33
2024-04-10T20:53:46.633Z,3.15
2024-04-10T20:56:17.987Z,3.28
2024-04-10T20:58:45.735Z,3.92
2024-04-10T21:01:17.543Z,3.55
2024-04-10T21:03:46.323Z,4.13
2024-04-10T21:06:15.019Z,4.10
2024-04-10T21:09:05.102Z,3.85
2024-04-10T21:11:52.649Z,4.45
2024-04-10T21:14:38.825Z,4.10
2024-04-10T21:17:24.918Z,3.80
2024-04-10T21:20:10.952Z,4.22
2024-04-10T21:22:57.283Z,4.60
2024-04-10T21:25:50.233Z,4.65
2024-04-10T21:28:36.004Z,4.35
2024-04-10T21:31:25.821Z,4.80
2024-04-10T21:34:12.021Z,5.10
2024-04-10T21:36:58.254Z,5.00
2024-04-10T21:39:45.087Z,5.78
2024-04-10T21:42:31.384Z,5.78
2024-04-10T21:45:17.350Z,6.13
2024-04-10T21:48:03.610Z,5.28
2024-04-10T21:50:50.058Z,5.28
2024-04-10T21:53:36.123Z,5.22
2024-04-10T21:56:26.399Z,5.43
2024-04-10T21:59:15.492Z,4.90
2024-04-10T22:02:06.708Z,5.00
2024-04-10T22:04:58.014Z,5.07
2024-04-10T22:07:46.065Z,5.40
2024-04-10T22:10:13.778Z,4.78
2024-04-10T22:12:41.523Z,4.85
2024-04-10T22:15:11.584Z,4.55
2024-04-10T22:17:58.057Z,5.35
2024-04-10T22:21:04.245Z,4.68
2024-04-10T22:26:19.957Z,4.40
2024-04-10T22:28:47.372Z,4.35
2024-04-10T22:31:14.816Z,4.10
2024-04-10T22:33:42.600Z,4.90
2024-04-10T22:36:10.459Z,4.20
2024-04-10T22:38:39.379Z,4.43
2024-04-10T22:41:06.745Z,4.63
2024-04-10T22:43:34.129Z,4.00
2024-04-10T22:46:01.560Z,4.60
2024-04-10T22:48:29.239Z,3.95
2024-04-10T22:50:58.523Z,4.43
2024-04-10T22:53:26.224Z,4.80
2024-04-10T22:55:53.615Z,4.45
2024-04-10T22:58:21.006Z,4.80
2024-04-10T23:00:48.490Z,5.18
2024-04-10T23:03:17.216Z,5.45
2024-04-10T23:05:51.964Z,5.50
2024-04-10T23:08:31.474Z,5.63
2024-04-10T23:11:01.253Z,5.90
2024-04-10T23:13:29.327Z,4.90
2024-04-10T23:15:56.927Z,5.53
2024-04-10T23:18:36.593Z,4.97
2024-04-10T23:21:11.918Z,4.93
2024-04-10T23:23:39.386Z,4.40
2024-04-10T23:26:06.840Z,4.85
2024-04-10T23:28:34.268Z,4.57
2024-04-10T23:31:01.823Z,4.35
2024-04-10T23:33:29.549Z,3.92
2024-04-10T23:35:57.362Z,4.47
2024-04-10T23:38:24.900Z,4.95
2024-04-10T23:40:53.167Z,3.80
2024-04-10T23:43:20.930Z,5.28
2024-04-10T23:45:55.150Z,4.47
2024-04-10T23:48:22.654Z,5.05
2024-04-10T23:50:50.354Z,4.60
2024-04-10T23:53:17.965Z,4.78
2024-04-10T23:55:45.386Z,4.55
2024-04-10T23:58:12.727Z,4.60
